Time;durP1;ratioP1;P1;durP2;ratioP2;P2;SDS_P1;SDS_P2;PMS_P1;PMS_P2;Temp;Humidity;BMP_temperature;BMP_pressure;BME280_temperature;BME280_humidity;BME280_pressure;Samples;Min_cycle;Max_cycle;Signal;HPM_P1;HPM_P2
2022/08/02 00:01:45;;;;;;;2.50;2.20;;;;;;;;;;5087871;28;20028;-73
2022/08/02 00:04:11;;;;;;;2.10;1.90;;;;;;;;;;5088287;28;20027;-73
2022/08/02 00:06:37;;;;;;;2.05;1.80;;;;;;;;;;5088091;28;20023;-73
2022/08/02 00:09:04;;;;;;;2.83;2.13;;;;;;;;;;5087997;28;20030;-73
2022/08/02 00:11:30;;;;;;;2.78;1.75;;;;;;;;;;5070623;28;20043;-71
2022/08/02 00:13:56;;;;;;;2.55;1.80;;;;;;;;;;5090246;28;20502;-70
2022/08/02 00:16:23;;;;;;;3.13;2.10;;;;;;;;;;5091137;28;20112;-71
2022/08/02 00:18:49;;;;;;;2.13;1.90;;;;;;;;;;5085466;28;20028;-75
2022/08/02 00:21:15;;;;;;;2.28;2.00;;;;;;;;;;5090523;28;20035;-75
2022/08/02 00:23:41;;;;;;;3.70;2.78;;;;;;;;;;5091591;28;20054;-75
2022/08/02 00:26:07;;;;;;;3.58;2.80;;;;;;;;;;5090441;28;20596;-72
2022/08/02 00:28:33;;;;;;;3.88;2.70;;;;;;;;;;5091679;28;20020;-73
2022/08/02 00:30:59;;;;;;;5.55;3.15;;;;;;;;;;5087381;28;20027;-73
2022/08/02 00:33:26;;;;;;;4.18;3.28;;;;;;;;;;5091667;28;20283;-73
2022/08/02 00:35:52;;;;;;;3.60;2.42;;;;;;;;;;5091198;28;20039;-75
2022/08/02 00:38:18;;;;;;;3.13;2.80;;;;;;;;;;5083540;28;20026;-75
2022/08/02 00:40:49;;;;;;;3.47;2.20;;;;;;;;;;5088946;28;20024;-74
2022/08/02 00:43:15;;;;;;;4.53;3.20;;;;;;;;;;5092579;28;20032;-74
2022/08/02 00:45:42;;;;;;;5.18;3.58;;;;;;;;;;5091680;28;20047;-72
2022/08/02 00:48:09;;;;;;;5.75;3.20;;;;;;;;;;5088383;28;20033;-72
2022/08/02 00:50:35;;;;;;;7.30;3.20;;;;;;;;;;5089962;28;20031;-72
2022/08/02 00:53:01;;;;;;;5.85;3.20;;;;;;;;;;5088497;28;20040;-73
2022/08/02 00:55:28;;;;;;;6.68;3.53;;;;;;;;;;5067565;28;20043;-73
2022/08/02 00:57:55;;;;;;;7.63;3.95;;;;;;;;;;5088367;28;20480;-74
2022/08/02 01:00:21;;;;;;;6.28;3.58;;;;;;;;;;5090069;28;20028;-74
2022/08/02 01:02:47;;;;;;;5.43;3.95;;;;;;;;;;5091806;28;20016;-74
2022/08/02 01:05:13;;;;;;;6.25;3.67;;;;;;;;;;5088112;28;20502;-74
2022/08/02 01:07:39;;;;;;;6.85;3.83;;;;;;;;;;5088496;28;20032;-74
2022/08/02 01:10:06;;;;;;;5.85;3.38;;;;;;;;;;5087705;28;20040;-74
2022/08/02 01:12:32;;;;;;;4.82;3.97;;;;;;;;;;5090661;28;20031;-74
2022/08/02 01:15:00;;;;;;;7.75;4.07;;;;;;;;;;5091470;28;20040;-74
2022/08/02 01:17:27;;;;;;;4.53;3.88;;;;;;;;;;5087317;28;20036;-75
2022/08/02 01:19:55;;;;;;;6.07;4.28;;;;;;;;;;5091468;28;20032;-73
2022/08/02 01:22:21;;;;;;;5.63;3.55;;;;;;;;;;5089789;28;20038;-72
2022/08/02 01:24:55;;;;;;;7.30;3.75;;;;;;;;;;5083684;28;20027;-73
2022/08/02 01:27:34;;;;;;;5.13;4.03;;;;;;;;;;5087552;28;20923;-72
2022/08/02 01:30:01;;;;;;;6.28;4.00;;;;;;;;;;5086391;28;20066;-72
2022/08/02 01:32:36;;;;;;;5.18;3.83;;;;;;;;;;5085984;28;20545;-72
2022/08/02 01:35:07;;;;;;;5.28;3.35;;;;;;;;;;5091405;28;20035;-72
2022/08/02 01:37:42;;;;;;;5.45;4.22;;;;;;;;;;5086691;28;20400;-73
2022/08/02 01:40:10;;;;;;;8.07;5.40;;;;;;;;;;5091253;28;20028;-72
2022/08/02 01:42:37;;;;;;;8.30;5.75;;;;;;;;;;5089825;28;20024;-72
2022/08/02 01:45:04;;;;;;;7.75;4.43;;;;;;;;;;5089228;28;20495;-72
2022/08/02 01:47:33;;;;;;;7.85;5.07;;;;;;;;;;5087023;28;20035;-72
2022/08/02 01:50:00;;;;;;;6.30;5.00;;;;;;;;;;5087402;28;20507;-73
2022/08/02 01:52:29;;;;;;;5.55;4.30;;;;;;;;;;5083745;28;20036;-72
2022/08/02 01:54:59;;;;;;;5.57;4.70;;;;;;;;;;5085898;28;20134;-71
2022/08/02 01:57:26;;;;;;;7.60;4.85;;;;;;;;;;5091424;28;20090;-71
2022/08/02 01:59:55;;;;;;;6.55;5.13;;;;;;;;;;5088017;28;20481;-71
2022/08/02 02:02:22;;;;;;;7.63;5.43;;;;;;;;;;5085178;28;20028;-72
2022/08/02 02:04:49;;;;;;;7.47;4.78;;;;;;;;;;5069701;28;20032;-73
2022/08/02 02:07:16;;;;;;;8.45;5.47;;;;;;;;;;5088451;28;20028;-72
2022/08/02 02:09:43;;;;;;;9.23;5.82;;;;;;;;;;5087131;28;20024;-72
2022/08/02 02:12:12;;;;;;;8.80;5.55;;;;;;;;;;5085721;28;20112;-71
2022/08/02 02:14:39;;;;;;;8.07;6.13;;;;;;;;;;5087544;28;20040;-72
2022/08/02 02:17:06;;;;;;;9.63;6.30;;;;;;;;;;5093281;28;20425;-73
2022/08/02 02:19:34;;;;;;;10.05;5.85;;;;;;;;;;5094330;28;20024;-73
2022/08/02 02:22:00;;;;;;;9.50;5.63;;;;;;;;;;5089411;28;20241;-73
2022/08/02 02:24:26;;;;;;;9.20;6.55;;;;;;;;;;5092116;28;20028;-73
2022/08/02 02:26:53;;;;;;;8.88;5.80;;;;;;;;;;5092785;28;20056;-74
2022/08/02 02:29:20;;;;;;;11.10;6.88;;;;;;;;;;5093613;28;20056;-73
2022/08/02 02:31:48;;;;;;;9.63;5.97;;;;;;;;;;5089523;28;20035;-72
2022/08/02 02:34:15;;;;;;;9.02;5.57;;;;;;;;;;5092532;28;20101;-72
2022/08/02 02:36:45;;;;;;;9.82;6.32;;;;;;;;;;5089562;28;20608;-73
2022/08/02 02:39:11;;;;;;;7.97;5.82;;;;;;;;;;5087659;28;20028;-73
2022/08/02 02:41:39;;;;;;;8.02;6.25;;;;;;;;;;5091928;28;20031;-73
2022/08/02 02:44:06;;;;;;;11.30;7.30;;;;;;;;;;5094601;28;20034;-74
2022/08/02 02:46:33;;;;;;;12.32;6.80;;;;;;;;;;5086477;28;20177;-73
2022/08/02 02:49:00;;;;;;;10.27;7.10;;;;;;;;;;5091024;28;20113;-72
2022/08/02 02:51:26;;;;;;;8.55;5.93;;;;;;;;;;5092442;28;20125;-73
2022/08/02 02:53:53;;;;;;;9.50;6.20;;;;;;;;;;5088335;28;20119;-73
2022/08/02 02:56:19;;;;;;;9.77;6.20;;;;;;;;;;5094647;28;20040;-74
2022/08/02 02:58:46;;;;;;;11.27;7.35;;;;;;;;;;5091678;28;20115;-74
2022/08/02 03:01:31;;;;;;;9.98;6.65;;;;;;;;;;5089629;28;20016;-74
2022/08/02 03:04:00;;;;;;;9.73;7.13;;;;;;;;;;5084116;28;20043;-73
2022/08/02 03:06:26;;;;;;;12.73;7.45;;;;;;;;;;5095437;28;20028;-72
2022/08/02 03:08:53;;;;;;;9.88;6.70;;;;;;;;;;5086255;28;20038;-74
2022/08/02 03:11:19;;;;;;;8.93;6.32;;;;;;;;;;5090257;28;20030;-73
2022/08/02 03:13:45;;;;;;;10.30;7.05;;;;;;;;;;5089045;28;20556;-73
2022/08/02 03:16:12;;;;;;;9.85;7.45;;;;;;;;;;5094224;28;20504;-73
2022/08/02 03:18:40;;;;;;;11.02;7.13;;;;;;;;;;5074717;28;20096;-72
2022/08/02 03:21:06;;;;;;;11.73;7.38;;;;;;;;;;5091377;28;20028;-73
2022/08/02 03:23:33;;;;;;;10.75;6.57;;;;;;;;;;5094077;28;20527;-73
2022/08/02 03:25:59;;;;;;;10.73;6.95;;;;;;;;;;5091120;28;20438;-73
2022/08/02 03:28:26;;;;;;;10.85;7.10;;;;;;;;;;5090298;28;20111;-73
2022/08/02 03:30:52;;;;;;;13.13;7.78;;;;;;;;;;5088183;28;20431;-73
2022/08/02 03:33:19;;;;;;;10.15;6.82;;;;;;;;;;5092010;28;20035;-73
2022/08/02 03:35:45;;;;;;;11.50;7.30;;;;;;;;;;5088635;28;20050;-73
2022/08/02 03:38:12;;;;;;;11.88;7.20;;;;;;;;;;5091385;28;20028;-73
2022/08/02 03:40:39;;;;;;;11.27;7.55;;;;;;;;;;5089813;28;20037;-73
2022/08/02 03:43:06;;;;;;;12.13;8.02;;;;;;;;;;5086975;28;20103;-73
2022/08/02 03:45:32;;;;;;;11.23;7.18;;;;;;;;;;5087819;28;20024;-73
2022/08/02 03:47:59;;;;;;;9.70;6.85;;;;;;;;;;5088073;28;20032;-73
2022/08/02 03:50:26;;;;;;;10.57;6.70;;;;;;;;;;5089930;28;20032;-72
2022/08/02 03:52:52;;;;;;;11.20;7.88;;;;;;;;;;5092943;28;20051;-73
2022/08/02 03:55:18;;;;;;;11.52;7.93;;;;;;;;;;5085844;28;20107;-74
2022/08/02 03:57:44;;;;;;;11.35;7.63;;;;;;;;;;5086144;28;20435;-74
2022/08/02 04:00:12;;;;;;;12.18;7.70;;;;;;;;;;5089961;28;20077;-74
2022/08/02 04:02:38;;;;;;;10.93;7.40;;;;;;;;;;5080911;28;20254;-74
2022/08/02 04:05:05;;;;;;;13.05;7.80;;;;;;;;;;5088466;28;20031;-74
2022/08/02 04:07:31;;;;;;;12.52;7.93;;;;;;;;;;5072444;28;20424;-74
2022/08/02 04:09:57;;;;;;;15.13;8.13;;;;;;;;;;5088287;28;20036;-72
2022/08/02 04:12:23;;;;;;;11.65;7.43;;;;;;;;;;5085512;28;20035;-72
2022/08/02 04:14:49;;;;;;;12.05;7.70;;;;;;;;;;5092412;28;20040;-74
2022/08/02 04:17:17;;;;;;;10.95;7.47;;;;;;;;;;5093184;28;20463;-73
2022/08/02 04:19:46;;;;;;;11.73;7.43;;;;;;;;;;5094102;28;20484;-73
2022/08/02 04:22:18;;;;;;;12.48;8.15;;;;;;;;;;5056750;28;20392;-74
2022/08/02 04:24:50;;;;;;;12.38;8.23;;;;;;;;;;5084204;28;20031;-74
2022/08/02 04:27:17;;;;;;;11.88;7.60;;;;;;;;;;5092656;28;20088;-73
2022/08/02 04:29:43;;;;;;;11.43;7.28;;;;;;;;;;5090813;28;20024;-72
2022/08/02 04:32:09;;;;;;;12.93;7.75;;;;;;;;;;5092012;28;20035;-72
2022/08/02 04:34:36;;;;;;;12.75;8.13;;;;;;;;;;5086566;28;20066;-73
2022/08/02 04:37:02;;;;;;;11.48;7.85;;;;;;;;;;5090127;28;20066;-74
2022/08/02 04:39:28;;;;;;;11.98;8.10;;;;;;;;;;5092335;28;20103;-74
2022/08/02 04:41:54;;;;;;;12.45;8.10;;;;;;;;;;5092443;28;20032;-75
2022/08/02 04:44:20;;;;;;;15.50;8.13;;;;;;;;;;5090752;28;20399;-75
2022/08/02 04:46:47;;;;;;;12.13;8.15;;;;;;;;;;5092004;28;20051;-74
2022/08/02 04:49:13;;;;;;;14.60;8.82;;;;;;;;;;5089686;28;20491;-73
2022/08/02 04:51:40;;;;;;;11.63;7.72;;;;;;;;;;5092936;28;20039;-71
2022/08/02 04:54:07;;;;;;;13.45;8.60;;;;;;;;;;5088647;28;20506;-70
2022/08/02 04:56:34;;;;;;;14.00;8.70;;;;;;;;;;5093363;28;20039;-72
2022/08/02 04:59:00;;;;;;;14.50;9.18;;;;;;;;;;5090819;28;20071;-72
2022/08/02 05:01:26;;;;;;;13.18;8.43;;;;;;;;;;5090589;28;20097;-72
2022/08/02 05:03:53;;;;;;;13.77;7.85;;;;;;;;;;5092137;28;20498;-70
2022/08/02 05:06:19;;;;;;;12.80;7.57;;;;;;;;;;5092618;28;20031;-71
2022/08/02 05:08:46;;;;;;;11.30;7.07;;;;;;;;;;5088231;28;20141;-71
2022/08/02 05:11:12;;;;;;;13.95;8.35;;;;;;;;;;5086920;28;20032;-71
2022/08/02 05:13:40;;;;;;;13.68;7.75;;;;;;;;;;5090786;28;20031;-71
2022/08/02 05:16:06;;;;;;;13.27;8.27;;;;;;;;;;5095236;28;20060;-71
2022/08/02 05:18:32;;;;;;;12.68;7.75;;;;;;;;;;5080494;28;20499;-71
2022/08/02 05:20:58;;;;;;;12.00;7.68;;;;;;;;;;5088578;28;20032;-71
2022/08/02 05:23:24;;;;;;;11.88;7.72;;;;;;;;;;5084237;28;20020;-71
2022/08/02 05:25:50;;;;;;;12.77;7.13;;;;;;;;;;5082535;28;20112;-71
2022/08/02 05:28:17;;;;;;;12.02;7.32;;;;;;;;;;5087603;28;20131;-74
2022/08/02 05:30:43;;;;;;;11.27;7.68;;;;;;;;;;5087487;28;20035;-74
2022/08/02 05:33:09;;;;;;;11.48;6.50;;;;;;;;;;5085173;28;20027;-75
2022/08/02 05:35:35;;;;;;;10.98;6.90;;;;;;;;;;5068560;28;20073;-72
2022/08/02 05:38:01;;;;;;;10.15;6.57;;;;;;;;;;5087723;28;20461;-71
2022/08/02 05:40:28;;;;;;;9.38;6.00;;;;;;;;;;5081223;28;20024;-72
2022/08/02 05:42:55;;;;;;;8.50;5.40;;;;;;;;;;5085167;28;20058;-73
2022/08/02 05:45:21;;;;;;;6.85;4.60;;;;;;;;;;5080566;28;20028;-73
2022/08/02 05:47:48;;;;;;;6.40;4.10;;;;;;;;;;5083818;28;20020;-73
2022/08/02 05:50:14;;;;;;;5.90;3.70;;;;;;;;;;5090000;28;20461;-73
2022/08/02 05:52:40;;;;;;;4.90;3.40;;;;;;;;;;5085070;28;20024;-73
2022/08/02 05:55:14;;;;;;;6.00;4.55;;;;;;;;;;5068948;28;20131;-73
2022/08/02 05:57:40;;;;;;;9.70;5.32;;;;;;;;;;5066418;28;20076;-73
2022/08/02 06:00:09;;;;;;;6.60;4.68;;;;;;;;;;5087852;28;20648;-73
2022/08/02 06:02:38;;;;;;;8.93;5.28;;;;;;;;;;5081083;28;20046;-72
2022/08/02 06:05:11;;;;;;;9.13;5.45;;;;;;;;;;5085500;28;20031;-73
2022/08/02 06:07:40;;;;;;;8.57;5.18;;;;;;;;;;5077064;28;20028;-73
2022/08/02 06:10:06;;;;;;;9.73;6.28;;;;;;;;;;5083778;28;20058;-72
2022/08/02 06:12:34;;;;;;;8.35;5.32;;;;;;;;;;5085730;28;20047;-72
2022/08/02 06:15:01;;;;;;;11.85;5.72;;;;;;;;;;5078060;28;20105;-73
2022/08/02 06:17:27;;;;;;;11.07;5.85;;;;;;;;;;5084900;28;20497;-73
2022/08/02 06:19:57;;;;;;;9.13;6.40;;;;;;;;;;5088150;28;20411;-73
2022/08/02 06:22:25;;;;;;;12.55;5.90;;;;;;;;;;5087669;28;20030;-73
2022/08/02 06:24:52;;;;;;;11.15;6.63;;;;;;;;;;5088516;28;20032;-73
2022/08/02 06:27:18;;;;;;;14.48;7.18;;;;;;;;;;5082435;28;20023;-73
2022/08/02 06:29:47;;;;;;;13.73;7.05;;;;;;;;;;5087676;28;20053;-74
2022/08/02 06:32:17;;;;;;;11.20;6.90;;;;;;;;;;5078632;28;20024;-73
2022/08/02 06:34:43;;;;;;;12.23;7.15;;;;;;;;;;5087246;28;20423;-74
2022/08/02 06:37:28;;;;;;;10.13;6.63;;;;;;;;;;5085170;28;20119;-74
2022/08/02 06:39:59;;;;;;;9.85;6.35;;;;;;;;;;5080198;28;20028;-73
2022/08/02 06:42:31;;;;;;;8.57;5.28;;;;;;;;;;5085400;28;20054;-74
2022/08/02 06:45:01;;;;;;;8.68;4.65;;;;;;;;;;5064208;28;20028;-74
2022/08/02 06:47:27;;;;;;;7.82;4.25;;;;;;;;;;5069490;28;20040;-74
2022/08/02 06:49:55;;;;;;;6.63;4.07;;;;;;;;;;5087264;28;20391;-74
2022/08/02 06:52:25;;;;;;;5.55;3.97;;;;;;;;;;5078511;28;20391;-74
2022/08/02 06:54:51;;;;;;;6.40;3.30;;;;;;;;;;5084214;28;20476;-73
2022/08/02 06:57:17;;;;;;;5.05;3.28;;;;;;;;;;5076835;28;20492;-73
2022/08/02 06:59:43;;;;;;;5.50;3.38;;;;;;;;;;5068283;28;20503;-73
2022/08/02 07:02:11;;;;;;;6.80;3.40;;;;;;;;;;5083327;28;20641;-73
2022/08/02 07:04:37;;;;;;;4.82;2.75;;;;;;;;;;5090516;28;20035;-73
2022/08/02 07:07:03;;;;;;;5.82;2.65;;;;;;;;;;5085658;28;20392;-73
2022/08/02 07:09:29;;;;;;;5.18;2.72;;;;;;;;;;5092396;28;20032;-73
2022/08/02 07:11:55;;;;;;;5.70;2.85;;;;;;;;;;5087607;28;20039;-73
2022/08/02 07:14:21;;;;;;;4.53;2.47;;;;;;;;;;5090031;28;20511;-72
2022/08/02 07:16:48;;;;;;;3.35;2.10;;;;;;;;;;5081450;28;20031;-73
2022/08/02 07:19:14;;;;;;;3.90;2.22;;;;;;;;;;5084571;28;20484;-73
2022/08/02 07:21:40;;;;;;;2.72;1.55;;;;;;;;;;5082822;28;20031;-72
2022/08/02 07:24:06;;;;;;;3.97;1.88;;;;;;;;;;5068447;28;20424;-72
2022/08/02 07:26:32;;;;;;;3.40;2.25;;;;;;;;;;5081253;28;20028;-73
2022/08/02 07:28:58;;;;;;;4.78;2.63;;;;;;;;;;5090461;28;20036;-72
2022/08/02 07:31:25;;;;;;;4.93;2.95;;;;;;;;;;5079449;28;20020;-72
2022/08/02 07:33:51;;;;;;;4.95;2.45;;;;;;;;;;5082065;28;20028;-73
2022/08/02 07:36:17;;;;;;;4.78;2.67;;;;;;;;;;5092044;28;20036;-73
2022/08/02 07:38:44;;;;;;;3.50;2.25;;;;;;;;;;5088560;28;20496;-73
2022/08/02 07:41:10;;;;;;;3.38;1.98;;;;;;;;;;5086953;28;20020;-74
2022/08/02 07:43:36;;;;;;;4.22;1.90;;;;;;;;;;5094130;28;20020;-74
2022/08/02 07:46:02;;;;;;;4.40;2.03;;;;;;;;;;5093245;28;20532;-73
2022/08/02 07:48:28;;;;;;;3.42;2.13;;;;;;;;;;5087819;28;20052;-74
2022/08/02 07:50:54;;;;;;;3.80;2.20;;;;;;;;;;5071000;28;20093;-74
2022/08/02 07:53:21;;;;;;;3.17;2.05;;;;;;;;;;5079146;28;20028;-74
2022/08/02 07:55:47;;;;;;;2.30;1.77;;;;;;;;;;5082770;28;20024;-74
2022/08/02 07:58:13;;;;;;;2.20;1.73;;;;;;;;;;5069258;28;20085;-74
2022/08/02 08:00:41;;;;;;;2.10;1.70;;;;;;;;;;5091241;28;20020;-74
2022/08/02 08:03:07;;;;;;;2.70;1.88;;;;;;;;;;5089061;28;20390;-74
2022/08/02 08:05:33;;;;;;;2.50;1.75;;;;;;;;;;5088871;28;20026;-74
2022/08/02 08:08:00;;;;;;;3.17;1.73;;;;;;;;;;5085394;28;20035;-73
2022/08/02 08:10:26;;;;;;;2.67;1.75;;;;;;;;;;5069707;28;20739;-74
2022/08/02 08:12:54;;;;;;;1.85;1.45;;;;;;;;;;5090436;28;20024;-74
2022/08/02 08:15:20;;;;;;;10.98;2.90;;;;;;;;;;5089800;28;20048;-74
2022/08/02 08:17:46;;;;;;;2.20;1.80;;;;;;;;;;5084543;28;20032;-74
2022/08/02 08:20:12;;;;;;;2.70;1.45;;;;;;;;;;5087020;28;20372;-74
2022/08/02 08:22:38;;;;;;;2.47;1.75;;;;;;;;;;5086072;28;20046;-74
2022/08/02 08:25:05;;;;;;;1.58;1.40;;;;;;;;;;5085281;28;20049;-74
2022/08/02 08:27:31;;;;;;;2.80;1.42;;;;;;;;;;5070858;28;20028;-74
2022/08/02 08:29:57;;;;;;;2.35;1.20;;;;;;;;;;5087676;28;20040;-73
2022/08/02 08:32:23;;;;;;;1.38;1.10;;;;;;;;;;5088219;28;20610;-74
2022/08/02 08:34:50;;;;;;;1.27;0.90;;;;;;;;;;5082998;28;20019;-74
2022/08/02 08:37:16;;;;;;;1.73;0.80;;;;;;;;;;5062513;28;20038;-73
2022/08/02 08:39:42;;;;;;;2.05;0.98;;;;;;;;;;5086735;28;20031;-74
2022/08/02 08:42:08;;;;;;;1.45;0.90;;;;;;;;;;5088163;28;20032;-74
2022/08/02 08:44:35;;;;;;;1.17;0.70;;;;;;;;;;5086276;28;20059;-74
2022/08/02 08:47:03;;;;;;;0.70;0.70;;;;;;;;;;5086816;28;20032;-74
2022/08/02 08:49:33;;;;;;;2.03;0.50;;;;;;;;;;5087612;28;20111;-74
2022/08/02 08:52:02;;;;;;;0.70;0.68;;;;;;;;;;5087608;28;20496;-74
2022/08/02 08:54:29;;;;;;;1.33;0.55;;;;;;;;;;5065293;28;20054;-74
2022/08/02 08:56:56;;;;;;;2.60;0.60;;;;;;;;;;5069815;28;20165;-74
2022/08/02 08:59:22;;;;;;;3.85;0.70;;;;;;;;;;5088555;28;20032;-74
2022/08/02 09:01:49;;;;;;;0.40;0.40;;;;;;;;;;5083863;28;20030;-74
2022/08/02 09:04:16;;;;;;;2.25;0.50;;;;;;;;;;5089166;28;20024;-73
2022/08/02 09:06:42;;;;;;;0.93;0.35;;;;;;;;;;5089010;28;20960;-74
2022/08/02 09:09:08;;;;;;;1.75;0.40;;;;;;;;;;5090678;28;20036;-73
2022/08/02 09:11:35;;;;;;;0.28;0.28;;;;;;;;;;5084529;28;20070;-73
2022/08/02 09:14:01;;;;;;;0.65;0.50;;;;;;;;;;5096215;28;20430;-72
2022/08/02 09:16:34;;;;;;;1.63;0.40;;;;;;;;;;5089217;28;20028;-73
2022/08/02 09:19:01;;;;;;;3.30;0.40;;;;;;;;;;5083593;28;20077;-73
2022/08/02 09:21:35;;;;;;;0.65;0.38;;;;;;;;;;5085571;28;20024;-73
2022/08/02 09:24:01;;;;;;;0.70;0.60;;;;;;;;;;5068747;28;20520;-74
2022/08/02 09:26:27;;;;;;;1.85;0.40;;;;;;;;;;5087919;28;20385;-73
2022/08/02 09:28:59;;;;;;;2.60;0.50;;;;;;;;;;5082373;28;22157;-74
2022/08/02 09:31:25;;;;;;;0.95;0.47;;;;;;;;;;5084115;28;20484;-72
2022/08/02 09:33:53;;;;;;;2.95;0.50;;;;;;;;;;5087818;28;20109;-73
2022/08/02 09:36:19;;;;;;;0.93;0.63;;;;;;;;;;5073170;28;20032;-73
2022/08/02 09:39:02;;;;;;;2.53;0.57;;;;;;;;;;5097423;28;20016;-73
2022/08/02 09:41:29;;;;;;;2.17;0.50;;;;;;;;;;5090908;28;20503;-73
2022/08/02 09:43:56;;;;;;;1.50;0.70;;;;;;;;;;5088248;28;20549;-73
2022/08/02 09:46:23;;;;;;;1.77;0.80;;;;;;;;;;5090003;28;20047;-73
2022/08/02 09:48:53;;;;;;;0.70;0.70;;;;;;;;;;5088655;28;20043;-77
2022/08/02 09:51:21;;;;;;;2.45;0.60;;;;;;;;;;5092550;28;20427;-77
2022/08/02 09:53:49;;;;;;;1.17;0.80;;;;;;;;;;5091828;28;20034;-77
2022/08/02 09:56:16;;;;;;;1.92;0.90;;;;;;;;;;5090347;28;20109;-77
2022/08/02 09:58:42;;;;;;;2.38;0.70;;;;;;;;;;5100001;28;20023;-76
2022/08/02 10:01:08;;;;;;;1.80;0.77;;;;;;;;;;5089095;28;20032;-77
2022/08/02 10:03:34;;;;;;;1.33;0.90;;;;;;;;;;5084548;28;20050;-76
2022/08/02 10:06:00;;;;;;;1.13;0.90;;;;;;;;;;5089826;28;20400;-76
2022/08/02 10:08:27;;;;;;;2.05;1.08;;;;;;;;;;5087049;28;20107;-77
2022/08/02 10:11:01;;;;;;;1.17;0.90;;;;;;;;;;5072191;28;20028;-77
2022/08/02 10:13:28;;;;;;;1.98;0.85;;;;;;;;;;5087873;28;20020;-76
2022/08/02 10:15:55;;;;;;;1.40;1.00;;;;;;;;;;5085825;28;20085;-76
2022/08/02 10:18:21;;;;;;;6.80;0.85;;;;;;;;;;5076044;28;20040;-75
2022/08/02 10:20:49;;;;;;;2.92;1.20;;;;;;;;;;5084092;28;20020;-75
2022/08/02 10:23:16;;;;;;;1.70;1.00;;;;;;;;;;5086988;28;20476;-75
2022/08/02 10:25:45;;;;;;;3.10;0.98;;;;;;;;;;5089975;28;20035;-74
2022/08/02 10:28:14;;;;;;;1.85;1.02;;;;;;;;;;5081957;28;20028;-73
2022/08/02 10:30:41;;;;;;;1.20;1.00;;;;;;;;;;5082371;28;20035;-73
2022/08/02 10:33:09;;;;;;;3.35;1.00;;;;;;;;;;5085013;28;20045;-73
2022/08/02 10:35:37;;;;;;;5.75;1.13;;;;;;;;;;5091468;28;20036;-73
2022/08/02 10:38:06;;;;;;;7.65;1.00;;;;;;;;;;5093112;28;20027;-74
2022/08/02 10:40:49;;;;;;;1.17;0.77;;;;;;;;;;5093593;28;20115;-74
2022/08/02 10:43:33;;;;;;;1.08;0.80;;;;;;;;;;5088862;28;20024;-75
2022/08/02 10:46:18;;;;;;;1.95;0.93;;;;;;;;;;5083145;28;20070;-72
2022/08/02 10:49:02;;;;;;;5.47;0.85;;;;;;;;;;5083640;28;20027;-73
2022/08/02 10:51:47;;;;;;;1.48;0.82;;;;;;;;;;5087736;28;20024;-75
2022/08/02 10:54:20;;;;;;;2.50;0.65;;;;;;;;;;5081374;28;20028;-74
2022/08/02 10:56:50;;;;;;;3.72;1.10;;;;;;;;;;5090396;28;20052;-74
2022/08/02 10:59:46;;;;;;;3.10;0.93;;;;;;;;;;5090621;28;20031;-74
2022/08/02 11:02:12;;;;;;;2.33;0.98;;;;;;;;;;5068489;28;20028;-74
2022/08/02 11:04:39;;;;;;;2.75;0.90;;;;;;;;;;5087570;28;20020;-74
2022/08/02 11:07:28;;;;;;;2.05;1.30;;;;;;;;;;5091423;28;20024;-74
2022/08/02 11:09:54;;;;;;;1.05;0.70;;;;;;;;;;5082802;28;20044;-74
2022/08/02 11:12:20;;;;;;;4.75;1.08;;;;;;;;;;5086200;28;20060;-74
2022/08/02 11:14:58;;;;;;;1.10;0.75;;;;;;;;;;5096367;28;20093;-71
2022/08/02 11:17:27;;;;;;;1.50;1.20;;;;;;;;;;5081616;28;20465;-73
2022/08/02 11:20:12;;;;;;;3.72;0.98;;;;;;;;;;5087681;28;20472;-73
2022/08/02 11:22:41;;;;;;;2.55;1.15;;;;;;;;;;5070412;28;20031;-75
2022/08/02 11:25:22;;;;;;;2.55;0.80;;;;;;;;;;5082204;28;20051;-75
2022/08/02 11:27:53;;;;;;;2.03;0.80;;;;;;;;;;5086555;28;20028;-75
2022/08/02 11:30:19;;;;;;;2.90;0.82;;;;;;;;;;5089671;28;20032;-75
2022/08/02 11:32:45;;;;;;;1.25;1.00;;;;;;;;;;5071172;28;20024;-75
2022/08/02 11:35:12;;;;;;;3.58;0.93;;;;;;;;;;5084007;28;20032;-73
2022/08/02 11:37:44;;;;;;;2.15;0.88;;;;;;;;;;5082090;28;20032;-73
2022/08/02 11:40:12;;;;;;;1.75;0.55;;;;;;;;;;5089800;28;20379;-74
2022/08/02 11:42:38;;;;;;;2.15;0.68;;;;;;;;;;5086299;28;20047;-74
2022/08/02 11:45:06;;;;;;;0.85;0.57;;;;;;;;;;5091558;28;20024;-74
2022/08/02 11:47:33;;;;;;;0.80;0.57;;;;;;;;;;5081610;28;20043;-74
2022/08/02 11:50:08;;;;;;;1.75;0.88;;;;;;;;;;5089752;28;20028;-74
2022/08/02 11:52:36;;;;;;;3.38;0.60;;;;;;;;;;5085583;28;20021;-74
2022/08/02 11:55:02;;;;;;;1.15;0.57;;;;;;;;;;5087072;28;20031;-73
2022/08/02 11:57:28;;;;;;;2.05;0.77;;;;;;;;;;5085322;28;21992;-74
2022/08/02 11:59:55;;;;;;;1.60;0.55;;;;;;;;;;5088694;28;20036;-74
2022/08/02 12:02:23;;;;;;;2.00;0.95;;;;;;;;;;5066453;28;20044;-74
2022/08/02 12:04:53;;;;;;;4.13;0.68;;;;;;;;;;5083510;28;20054;-74
2022/08/02 12:07:25;;;;;;;0.57;0.47;;;;;;;;;;5077751;28;20020;-74
2022/08/02 12:09:51;;;;;;;2.17;0.65;;;;;;;;;;5079146;28;20059;-74
2022/08/02 12:12:17;;;;;;;1.65;0.60;;;;;;;;;;5078258;28;20059;-74
2022/08/02 12:14:48;;;;;;;3.30;0.63;;;;;;;;;;5078844;28;20051;-74
2022/08/02 12:20:07;;;;;;;2.67;0.55;;;;;;;;;;5061060;28;20122;-75
2022/08/02 12:22:35;;;;;;;1.30;0.80;;;;;;;;;;5079232;28;20025;-75
2022/08/02 12:25:14;;;;;;;6.75;0.45;;;;;;;;;;5082215;28;20028;-74
2022/08/02 12:27:42;;;;;;;1.45;0.50;;;;;;;;;;5081303;28;20528;-74
2022/08/02 12:30:12;;;;;;;3.25;0.60;;;;;;;;;;5083595;28;20536;-75
2022/08/02 12:32:39;;;;;;;0.70;0.52;;;;;;;;;;5082935;28;21528;-67
2022/08/02 12:35:05;;;;;;;1.70;0.98;;;;;;;;;;5098308;28;20051;-68
2022/08/02 12:37:31;;;;;;;3.10;0.57;;;;;;;;;;5085367;28;20028;-68
2022/08/02 12:39:57;;;;;;;3.22;0.60;;;;;;;;;;5078071;28;20460;-68
2022/08/02 12:42:24;;;;;;;3.88;0.90;;;;;;;;;;5065333;28;20017;-75
2022/08/02 12:44:58;;;;;;;1.25;0.50;;;;;;;;;;5082719;28;20051;-74
2022/08/02 12:47:24;;;;;;;0.98;0.40;;;;;;;;;;5067564;28;20612;-75
2022/08/02 12:50:09;;;;;;;4.93;0.90;;;;;;;;;;5086884;28;20445;-74
2022/08/02 12:52:36;;;;;;;1.23;0.50;;;;;;;;;;5070778;28;20032;-75
2022/08/02 12:55:14;;;;;;;2.53;0.60;;;;;;;;;;5085459;28;20025;-75
2022/08/02 12:57:50;;;;;;;0.90;0.57;;;;;;;;;;5088342;28;20114;-75
2022/08/02 13:00:23;;;;;;;1.67;0.52;;;;;;;;;;5085684;28;20020;-75
2022/08/02 13:02:49;;;;;;;1.67;0.80;;;;;;;;;;5078823;28;20032;-75
2022/08/02 13:05:15;;;;;;;2.53;0.60;;;;;;;;;;5084476;28;20028;-76
2022/08/02 13:07:41;;;;;;;1.95;0.60;;;;;;;;;;5066049;28;20090;-76
2022/08/02 13:10:08;;;;;;;1.85;0.50;;;;;;;;;;5084638;28;20028;-75
2022/08/02 13:12:35;;;;;;;1.13;0.50;;;;;;;;;;5083383;28;20031;-75
2022/08/02 13:15:01;;;;;;;4.80;0.65;;;;;;;;;;5081699;28;20115;-75
2022/08/02 13:17:27;;;;;;;1.95;0.60;;;;;;;;;;5068447;28;20039;-75
2022/08/02 13:19:54;;;;;;;0.65;0.60;;;;;;;;;;5086132;28;20031;-75
2022/08/02 13:22:20;;;;;;;3.83;0.60;;;;;;;;;;5086294;28;20491;-75
2022/08/02 13:24:48;;;;;;;2.78;0.70;;;;;;;;;;5083617;28;20028;-75
2022/08/02 13:27:14;;;;;;;1.98;0.57;;;;;;;;;;5063518;28;20023;-75
2022/08/02 13:29:40;;;;;;;1.00;0.60;;;;;;;;;;5084178;28;20024;-74
2022/08/02 13:32:06;;;;;;;8.10;0.80;;;;;;;;;;5088043;28;20036;-75
2022/08/02 13:34:33;;;;;;;4.18;0.70;;;;;;;;;;5080951;28;20029;-75
2022/08/02 13:36:59;;;;;;;0.88;0.68;;;;;;;;;;5069887;28;20042;-75
2022/08/02 13:39:25;;;;;;;0.90;0.55;;;;;;;;;;5083281;28;20088;-75
2022/08/02 13:41:51;;;;;;;1.58;0.50;;;;;;;;;;5081718;28;20107;-75
2022/08/02 13:44:17;;;;;;;0.90;0.50;;;;;;;;;;5085110;28;20028;-75
2022/08/02 13:46:44;;;;;;;1.95;0.47;;;;;;;;;;5086176;28;20035;-75
2022/08/02 13:49:10;;;;;;;0.68;0.45;;;;;;;;;;5084139;28;20024;-75
2022/08/02 13:51:36;;;;;;;1.83;0.95;;;;;;;;;;5078567;28;20419;-75
2022/08/02 13:54:02;;;;;;;2.30;0.60;;;;;;;;;;5075755;28;20067;-75
2022/08/02 13:56:28;;;;;;;3.83;0.60;;;;;;;;;;5079569;28;20032;-75
2022/08/02 13:58:54;;;;;;;2.58;0.60;;;;;;;;;;5062568;28;20556;-75
2022/08/02 14:01:20;;;;;;;5.35;0.90;;;;;;;;;;5083399;28;20020;-75
2022/08/02 14:03:46;;;;;;;4.72;1.05;;;;;;;;;;5075821;28;20028;-75
2022/08/02 14:06:13;;;;;;;4.88;0.88;;;;;;;;;;5066504;28;20472;-75
2022/08/02 14:08:39;;;;;;;1.65;0.73;;;;;;;;;;5086246;28;20403;-75
2022/08/02 14:11:05;;;;;;;7.50;1.02;;;;;;;;;;5093179;28;20537;-75
2022/08/02 14:13:31;;;;;;;1.70;0.90;;;;;;;;;;5089857;28;20028;-75
2022/08/02 14:15:58;;;;;;;1.08;0.77;;;;;;;;;;5074126;28;20054;-75
2022/08/02 14:18:24;;;;;;;1.30;0.70;;;;;;;;;;5081089;28;20155;-75
2022/08/02 14:20:51;;;;;;;6.25;0.85;;;;;;;;;;5092754;28;20020;-75
2022/08/02 14:23:17;;;;;;;1.77;0.52;;;;;;;;;;5089766;28;20106;-75
2022/08/02 14:25:43;;;;;;;1.63;0.73;;;;;;;;;;5083487;28;20396;-75
2022/08/02 14:28:09;;;;;;;6.20;1.23;;;;;;;;;;5091454;28;20024;-75
2022/08/02 14:30:35;;;;;;;1.80;1.00;;;;;;;;;;5095580;28;20024;-75
2022/08/02 14:33:02;;;;;;;2.55;0.80;;;;;;;;;;5072638;28;20388;-75
2022/08/02 14:35:29;;;;;;;3.72;0.88;;;;;;;;;;5093165;28;20476;-75
2022/08/02 14:37:55;;;;;;;2.22;0.63;;;;;;;;;;5084887;28;20031;-74
2022/08/02 14:40:22;;;;;;;1.92;0.60;;;;;;;;;;5092332;28;20131;-75
2022/08/02 14:42:50;;;;;;;2.75;0.95;;;;;;;;;;5097868;28;20065;-75
2022/08/02 14:45:17;;;;;;;3.28;1.05;;;;;;;;;;5099531;28;20032;-75
2022/08/02 14:47:44;;;;;;;5.53;1.65;;;;;;;;;;5078329;28;20028;-75